Historyczne dane pomiarowe

Dodano dane terminowe – wersja testowa.

Dane z okresu 1951-2019

Wersja bazy: 1.34 [2019-03-16, lista zmian], aktualizacja planowana na 2019-04-15

Dane meteo z obszaru Polski uzyskane na podstawie danych udostępnionych przez Instytut Meteorologii i Gospodarki Wodnej – Państwowy Instytut Badawczy.

 

Wybierz Datę:    

       

TemperaturaWilgotnośćZachmurzenieWiatrCiśnienieWidzialnośćZjawiska
 Data    tng td wb rh cc ccl cl cm ch dir g1 g2 mslp ppp      
1999-06-21 00:00:00 17.4--- 13.9 15.380wxwxwx1wx--1006.9 997.0 0.0---wx
1999-06-21 01:00:00 17.2--- 13.9 15.281wxwxwx2wx--1006.2 996.3----wx
1999-06-21 02:00:00 16.8--- 13.8 15.083wxwxwx2wx--1005.5 995.6----wx
1999-06-21 03:00:00 16.4--- 13.6 14.783wxwxwx2wx--1004.9 995.0----wx
1999-06-21 04:00:00 16.2--- 13.4 14.583wxwxwx1wx--1004.9 995.0----wx
1999-06-21 05:00:00 16.4--- 13.2 14.581wxwxwx2wx--1004.9 995.0----wx
1999-06-21 06:00:00 16.8--- 13.3 14.780wxwxwx4wx--1005.0 995.1 0.0---wx
1999-06-21 07:00:00 16.5--- 13.9 14.984wxwxwxwx1wx--1005.0 995.1----wx
1999-06-21 08:00:00 16.9--- 13.9 15.183wxwxwx0wx--1005.1 995.2----wx
1999-06-21 09:00:00 18.1--- 13.1 15.173wxwxwxwx2wx--1005.1 995.2----wx
1999-06-21 10:00:00 16.3--- 12.8 14.280wxwxwxwx5wx--1005.7 995.8----wx
1999-06-21 11:00:00 13.9--- 13.0 13.495wxwxwxwx4wx--1006.5 996.5----wxw1
1999-06-21 12:00:00 14.3--- 13.6 13.996wxwxwxwx5wx--1006.8 996.8 1.1---wxw1
1999-06-21 13:00:00 13.5--- 12.5 12.994wxwxwxwx4wx--1007.4 997.4----wxw1
1999-06-21 14:00:00 12.9--- 11.7 12.292wxwxwxwx4wx--1007.9 997.8----wxw1
1999-06-21 15:00:00 14.4--- 10.5 12.277wxwxwxwx4wx--1008.0 998.0----wxw1
1999-06-21 16:00:00 12.9--- 10.9 11.888wxwxwxwx3wx--1008.5 998.4----wx
1999-06-21 17:00:00 13.4--- 10.7 11.984wxwxwxwx3wx--1009.4 999.3----wx
1999-06-21 18:00:00 13.1--- 10.0 11.482wxwxwxwx3wx--1009.7 999.6 0.5---wxw1
1999-06-21 19:00:00 12.9--- 10.2 11.484wxwxwxwx3wx--1010.0 999.9----wx
1999-06-21 20:00:00 12.4--- 10.8 11.590wxwxwxwx1wx--1010.41000.3----wx
1999-06-21 21:00:00 10.4--- 9.1 9.792wxwxwxwx1wx--1010.61000.4----wx
1999-06-21 22:00:00 11.0--- 9.9 10.493wxwxwx1wx--1010.81000.6----wx
1999-06-21 23:00:00 10.6--- 8.7 9.688wxwxwx1wx--1011.01000.8----wx

 

Źródłem pochodzenia danych jest Instytut Meteorologii i Gospodarki Wodnej – Państwowy Instytut Badawczy. Dane Instytutu Meteorologii i Gospodarki Wodnej – Państwowego Instytutu Badawczego zostały przetworzone.

Dane źródłowe można odnaleźć na stronie https://dane.imgw.pl